createdAt,value
2023-04-23T00:02:17.502Z,46.58
2023-04-23T00:04:53.143Z,46.77
2023-04-23T00:07:25.892Z,46.70
2023-04-23T00:09:57.764Z,46.71
2023-04-23T00:12:30.752Z,46.85
2023-04-23T00:15:02.773Z,47.26
2023-04-23T00:17:34.760Z,47.11
2023-04-23T00:20:07.328Z,47.09
2023-04-23T00:22:39.035Z,47.21
2023-04-23T00:25:11.561Z,47.35
2023-04-23T00:27:43.495Z,47.32
2023-04-23T00:30:16.889Z,47.36
2023-04-23T00:32:48.773Z,47.35
2023-04-23T00:35:20.985Z,47.42
2023-04-23T00:37:52.670Z,47.37
2023-04-23T00:40:25.233Z,47.53
2023-04-23T00:42:58.332Z,47.49
2023-04-23T00:45:30.183Z,47.41
2023-04-23T00:48:02.634Z,47.55
2023-04-23T00:50:34.331Z,47.84
2023-04-23T00:53:06.076Z,47.79
2023-04-23T00:55:37.702Z,47.88
2023-04-23T00:58:09.330Z,47.93
2023-04-23T01:01:03.922Z,47.99
2023-04-23T01:03:36.646Z,48.09
2023-04-23T01:06:08.988Z,48.07
2023-04-23T01:08:41.067Z,48.21
2023-04-23T01:11:14.740Z,48.41
2023-04-23T01:13:46.312Z,48.59
2023-04-23T01:16:17.948Z,48.51
2023-04-23T01:18:49.592Z,48.56
2023-04-23T01:21:21.211Z,48.67
2023-04-23T01:23:52.934Z,48.93
2023-04-23T01:26:25.658Z,49.06
2023-04-23T01:28:57.414Z,49.08
2023-04-23T01:31:29.451Z,48.94
2023-04-23T01:34:01.213Z,49.18
2023-04-23T01:36:33.411Z,49.22
2023-04-23T01:39:05.778Z,49.42
2023-04-23T01:41:38.034Z,49.40
2023-04-23T01:44:09.665Z,49.44
2023-04-23T01:46:42.023Z,49.63
2023-04-23T01:49:13.652Z,49.74
2023-04-23T01:51:45.706Z,49.93
2023-04-23T01:54:17.306Z,50.03
2023-04-23T01:56:48.944Z,50.09
2023-04-23T01:59:20.892Z,49.93
2023-04-23T02:01:52.541Z,49.90
2023-04-23T02:04:24.332Z,50.07
2023-04-23T02:06:56.278Z,50.07
2023-04-23T02:09:28.249Z,50.10
2023-04-23T02:11:59.930Z,50.08
2023-04-23T02:14:31.825Z,50.33
2023-04-23T02:17:03.964Z,50.64
2023-04-23T02:19:35.886Z,50.67
2023-04-23T02:22:07.656Z,50.63
2023-04-23T02:24:39.665Z,50.75
2023-04-23T02:27:12.064Z,50.75
2023-04-23T02:29:43.736Z,50.92
2023-04-23T02:32:15.973Z,51.02
2023-04-23T02:34:47.566Z,51.02
2023-04-23T02:37:19.378Z,51.05
2023-04-23T02:39:51.286Z,51.04
2023-04-23T02:42:23.060Z,51.04
2023-04-23T02:44:54.704Z,51.14
2023-04-23T02:47:26.362Z,51.36
2023-04-23T02:49:58.358Z,51.54
2023-04-23T02:52:30.182Z,51.57
2023-04-23T02:55:05.370Z,51.57
2023-04-23T02:57:37.577Z,51.77
2023-04-23T03:00:11.709Z,51.95
2023-04-23T03:02:45.868Z,52.28
2023-04-23T03:05:18.088Z,52.41
2023-04-23T03:07:50.054Z,52.42
2023-04-23T03:10:22.064Z,52.29
2023-04-23T03:12:53.776Z,52.37
2023-04-23T03:15:27.435Z,52.49
2023-04-23T03:17:59.343Z,52.60
2023-04-23T03:20:31.253Z,52.67
2023-04-23T03:23:03.053Z,52.70
2023-04-23T03:25:35.202Z,52.80
2023-04-23T03:28:07.180Z,53.06
2023-04-23T03:30:38.926Z,53.36
2023-04-23T03:33:10.642Z,53.44
2023-04-23T03:35:42.441Z,53.81
2023-04-23T03:38:15.792Z,54.86
2023-04-23T03:40:47.864Z,55.34
2023-04-23T03:43:20.802Z,55.85
2023-04-23T03:46:09.480Z,57.06
2023-04-23T03:48:43.339Z,57.10
2023-04-23T03:51:16.698Z,56.38
2023-04-23T03:53:50.901Z,55.61
2023-04-23T03:56:36.214Z,55.31
2023-04-23T03:59:22.823Z,55.06
2023-04-23T04:01:56.325Z,56.21
2023-04-23T04:04:29.876Z,55.80
2023-04-23T04:07:01.963Z,55.66
2023-04-23T04:09:33.862Z,56.71
2023-04-23T04:12:07.229Z,56.38
2023-04-23T04:14:38.987Z,57.49
2023-04-23T04:17:12.531Z,58.99
2023-04-23T04:19:44.160Z,58.69
2023-04-23T04:22:16.289Z,59.22
2023-04-23T04:24:48.354Z,59.05
2023-04-23T04:27:19.971Z,59.38
2023-04-23T04:29:51.975Z,60.33
2023-04-23T04:32:23.735Z,60.74
2023-04-23T04:34:55.349Z,61.31
2023-04-23T04:37:28.221Z,60.37
2023-04-23T04:40:01.547Z,59.81
2023-04-23T04:42:33.428Z,59.14
2023-04-23T04:45:06.192Z,59.26
2023-04-23T04:47:38.549Z,58.63
2023-04-23T04:50:11.184Z,57.30
2023-04-23T04:52:43.225Z,56.71
2023-04-23T04:55:14.935Z,56.16
2023-04-23T04:57:46.525Z,56.27
2023-04-23T05:00:26.840Z,55.56
2023-04-23T05:02:59.134Z,55.56
2023-04-23T05:05:33.933Z,55.13
2023-04-23T05:08:05.879Z,55.38
2023-04-23T05:10:37.760Z,55.54
2023-04-23T05:13:09.355Z,55.06
2023-04-23T05:15:41.185Z,54.74
2023-04-23T05:18:12.924Z,54.82
2023-04-23T05:20:44.570Z,55.00
2023-04-23T05:23:16.640Z,55.02
2023-04-23T05:25:48.552Z,55.28
2023-04-23T05:28:20.258Z,55.05
2023-04-23T05:30:52.036Z,55.65
2023-04-23T05:33:23.688Z,56.02
2023-04-23T05:35:55.523Z,55.75
2023-04-23T05:38:27.623Z,55.95
2023-04-23T05:40:59.523Z,56.21
2023-04-23T05:43:31.033Z,56.33
2023-04-23T05:46:04.866Z,56.44
2023-04-23T05:48:36.865Z,56.17
2023-04-23T05:51:08.729Z,55.96
2023-04-23T05:53:40.375Z,55.67
2023-04-23T05:56:12.635Z,55.36
2023-04-23T05:58:44.364Z,55.65
2023-04-23T06:01:16.435Z,54.61
2023-04-23T06:03:48.420Z,54.29
2023-04-23T06:06:20.343Z,52.91
2023-04-23T06:08:52.517Z,51.67
2023-04-23T06:11:25.218Z,50.84
2023-04-23T06:13:57.060Z,51.87
2023-04-23T06:16:28.812Z,51.09
2023-04-23T06:19:00.669Z,51.36
2023-04-23T06:21:32.620Z,51.89
2023-04-23T06:24:04.183Z,52.26
2023-04-23T06:26:35.738Z,52.02
2023-04-23T06:29:09.348Z,52.88
2023-04-23T06:31:42.787Z,53.42
2023-04-23T06:34:14.621Z,54.56
2023-04-23T06:36:46.796Z,54.36
2023-04-23T06:39:18.487Z,53.82
2023-04-23T06:41:50.439Z,53.87
2023-04-23T06:44:27.022Z,53.34
2023-04-23T06:46:58.554Z,53.12
2023-04-23T06:49:30.798Z,53.08
2023-04-23T06:52:02.332Z,52.64
2023-04-23T06:54:34.022Z,51.69
2023-04-23T06:57:05.911Z,51.11
2023-04-23T06:59:38.067Z,51.89
2023-04-23T07:02:09.740Z,51.52
2023-04-23T07:04:42.093Z,51.78
2023-04-23T07:07:14.428Z,51.11
2023-04-23T07:09:46.495Z,50.28
2023-04-23T07:12:18.179Z,49.08
2023-04-23T07:14:50.025Z,47.97
2023-04-23T07:17:21.944Z,47.89
2023-04-23T07:19:53.778Z,47.24
2023-04-23T07:22:27.377Z,45.02
2023-04-23T07:25:00.198Z,43.52
2023-04-23T07:27:33.403Z,44.12
2023-04-23T07:30:05.816Z,42.84
2023-04-23T07:32:38.037Z,42.02
2023-04-23T07:35:10.833Z,42.31
2023-04-23T07:37:43.070Z,42.41
2023-04-23T07:40:14.908Z,41.02
2023-04-23T07:42:46.695Z,40.56
2023-04-23T07:45:18.728Z,41.39
2023-04-23T07:47:51.448Z,40.59
2023-04-23T07:50:23.199Z,41.04
2023-04-23T07:52:54.882Z,40.70
2023-04-23T07:55:26.500Z,40.14
2023-04-23T07:57:58.136Z,38.61
2023-04-23T08:00:29.834Z,38.95
2023-04-23T08:03:01.623Z,38.70
2023-04-23T08:05:33.734Z,38.45
2023-04-23T08:08:05.603Z,37.70
2023-04-23T08:10:37.177Z,35.47
2023-04-23T08:13:08.797Z,34.57
2023-04-23T08:15:40.526Z,33.69
2023-04-23T08:18:12.168Z,32.94
2023-04-23T08:20:43.868Z,32.07
2023-04-23T08:23:15.451Z,29.93
2023-04-23T08:25:47.173Z,27.93
2023-04-23T08:28:19.936Z,26.64
2023-04-23T08:30:51.623Z,26.76
2023-04-23T08:33:23.494Z,25.60
2023-04-23T08:35:54.997Z,24.91
2023-04-23T08:38:27.112Z,25.07
2023-04-23T08:40:59.332Z,24.84
2023-04-23T08:43:34.923Z,25.92
2023-04-23T08:46:06.505Z,24.53
2023-04-23T08:48:38.257Z,25.05
2023-04-23T08:51:11.542Z,24.80
2023-04-23T08:53:44.337Z,25.08
2023-04-23T08:56:16.468Z,25.42
2023-04-23T08:58:48.039Z,25.52
2023-04-23T09:01:19.864Z,26.12
2023-04-23T09:03:51.692Z,27.08
2023-04-23T09:06:23.504Z,27.78
2023-04-23T09:08:55.059Z,28.96
2023-04-23T09:11:27.294Z,29.64
2023-04-23T09:13:58.893Z,30.25
2023-04-23T09:16:30.601Z,30.79
2023-04-23T09:19:02.372Z,30.82
2023-04-23T09:21:34.483Z,31.25
2023-04-23T09:24:06.648Z,31.42
2023-04-23T09:26:40.051Z,31.80
2023-04-23T09:29:17.576Z,32.50
2023-04-23T09:31:50.447Z,32.17
2023-04-23T09:34:23.402Z,31.67
2023-04-23T09:36:54.914Z,31.78
2023-04-23T09:39:26.734Z,31.58
2023-04-23T09:41:58.594Z,32.11
2023-04-23T09:44:32.796Z,31.56
2023-04-23T09:47:12.278Z,30.90
2023-04-23T09:49:50.449Z,30.14
2023-04-23T09:52:23.028Z,30.29
2023-04-23T09:54:54.743Z,29.06
2023-04-23T09:57:26.921Z,29.54
2023-04-23T10:00:07.214Z,27.37
2023-04-23T10:02:34.029Z,27.96
2023-04-23T10:05:24.209Z,28.49
2023-04-23T10:07:50.980Z,27.97
2023-04-23T10:10:22.743Z,28.25
2023-04-23T10:12:57.878Z,28.46
2023-04-23T10:15:29.553Z,28.70
2023-04-23T10:18:01.383Z,29.11
2023-04-23T10:20:33.141Z,29.38
2023-04-23T10:23:05.036Z,29.35
2023-04-23T10:25:37.820Z,29.54
2023-04-23T10:28:09.542Z,28.98
2023-04-23T10:30:41.842Z,29.26
2023-04-23T10:33:26.497Z,29.42
2023-04-23T10:35:48.762Z,29.12
2023-04-23T10:38:20.655Z,29.14
2023-04-23T10:40:52.355Z,28.88
2023-04-23T10:43:23.987Z,29.04
2023-04-23T10:45:55.973Z,28.85
2023-04-23T10:48:29.492Z,28.86
2023-04-23T10:53:44.166Z,28.49
2023-04-23T10:56:15.715Z,28.37
2023-04-23T10:58:51.890Z,28.16
2023-04-23T11:01:25.779Z,28.06
2023-04-23T11:03:57.622Z,27.79
2023-04-23T11:06:52.138Z,27.76
2023-04-23T11:09:44.719Z,27.82
2023-04-23T11:12:31.291Z,28.03
2023-04-23T11:15:13.965Z,27.78
2023-04-23T11:17:49.059Z,27.85
2023-04-23T11:20:21.636Z,27.73
2023-04-23T11:22:54.046Z,28.06
2023-04-23T11:25:27.023Z,27.45
2023-04-23T11:27:59.127Z,27.47
2023-04-23T11:30:31.208Z,27.28
2023-04-23T11:33:02.905Z,27.05
2023-04-23T11:35:36.440Z,26.78
2023-04-23T11:38:10.636Z,26.80
2023-04-23T11:40:43.006Z,26.96
2023-04-23T11:43:17.874Z,26.72
2023-04-23T11:45:49.820Z,26.72
2023-04-23T11:48:21.724Z,26.57
2023-04-23T11:50:53.503Z,26.21
2023-04-23T11:53:27.034Z,26.70
2023-04-23T11:55:59.949Z,25.84
2023-04-23T11:58:31.979Z,25.52
2023-04-23T12:01:04.157Z,25.35
2023-04-23T12:03:37.212Z,25.73
2023-04-23T12:06:08.984Z,25.57
2023-04-23T12:08:43.287Z,26.26
2023-04-23T12:11:15.364Z,25.89
2023-04-23T12:13:46.939Z,25.89
2023-04-23T12:16:18.577Z,25.51
2023-04-23T12:18:53.366Z,25.44
2023-04-23T12:21:26.313Z,25.24
2023-04-23T12:23:58.632Z,24.96
2023-04-23T12:26:31.618Z,25.26
2023-04-23T12:29:03.510Z,25.12
2023-04-23T12:31:37.727Z,24.81
2023-04-23T12:34:10.385Z,24.87
2023-04-23T12:36:48.678Z,24.48
2023-04-23T12:39:26.012Z,24.47
2023-04-23T12:42:00.674Z,24.75
2023-04-23T12:44:37.700Z,23.51
2023-04-23T12:47:11.159Z,23.21
2023-04-23T12:49:44.216Z,23.31
2023-04-23T12:52:16.003Z,23.04
2023-04-23T12:54:49.231Z,23.17
2023-04-23T12:57:22.472Z,22.97
2023-04-23T12:59:55.287Z,23.32
2023-04-23T13:02:27.373Z,23.16
2023-04-23T13:05:01.440Z,22.95
2023-04-23T13:07:33.702Z,22.93
2023-04-23T13:10:05.919Z,23.03
2023-04-23T13:15:10.023Z,22.45
2023-04-23T13:17:42.527Z,22.53
2023-04-23T13:20:14.210Z,22.42
2023-04-23T13:22:46.227Z,22.54
2023-04-23T13:25:18.003Z,22.48
2023-04-23T13:27:49.615Z,22.63
2023-04-23T13:30:21.188Z,22.39
2023-04-23T13:32:53.576Z,22.72
2023-04-23T13:35:25.390Z,22.33
2023-04-23T13:37:57.153Z,22.34
2023-04-23T13:40:28.745Z,22.60
2023-04-23T13:43:00.523Z,22.57
2023-04-23T13:45:32.353Z,22.79
2023-04-23T13:48:05.234Z,22.59
2023-04-23T13:50:37.113Z,22.48
2023-04-23T13:53:10.520Z,22.93
2023-04-23T13:55:42.282Z,23.59
2023-04-23T13:58:14.302Z,23.84
2023-04-23T14:00:45.881Z,24.44
2023-04-23T14:03:17.757Z,24.51
2023-04-23T14:05:49.526Z,24.57
2023-04-23T14:08:21.223Z,24.59
2023-04-23T14:10:52.908Z,24.80
2023-04-23T14:13:24.550Z,24.88
2023-04-23T14:15:56.309Z,24.85
2023-04-23T14:18:28.057Z,25.14
2023-04-23T14:20:59.653Z,24.89
2023-04-23T14:24:12.069Z,24.83
2023-04-23T14:26:49.265Z,24.88
2023-04-23T14:29:27.499Z,24.86
2023-04-23T14:31:59.202Z,25.58
2023-04-23T14:34:30.863Z,25.27
2023-04-23T14:37:02.737Z,25.35
2023-04-23T14:39:35.369Z,25.78
2023-04-23T14:42:07.092Z,25.64
2023-04-23T14:44:39.078Z,26.00
2023-04-23T14:47:11.991Z,25.87
2023-04-23T14:49:45.001Z,25.87
2023-04-23T14:52:16.866Z,25.80
2023-04-23T14:54:48.476Z,25.79
2023-04-23T14:57:20.065Z,26.39
2023-04-23T14:59:52.117Z,26.25
2023-04-23T15:02:23.849Z,26.69
2023-04-23T15:04:55.458Z,26.45
2023-04-23T15:07:27.240Z,26.23
2023-04-23T15:09:58.957Z,26.82
2023-04-23T15:12:55.533Z,27.13
2023-04-23T15:15:44.148Z,26.78
2023-04-23T15:18:14.360Z,27.11
2023-04-23T15:20:46.120Z,26.81
2023-04-23T15:23:19.430Z,26.97
2023-04-23T15:25:53.036Z,27.28
2023-04-23T15:28:25.451Z,27.08
2023-04-23T15:30:57.030Z,26.85
2023-04-23T15:33:29.754Z,26.55
2023-04-23T15:36:01.269Z,26.67
2023-04-23T15:38:33.283Z,26.86
2023-04-23T15:41:05.010Z,27.15
2023-04-23T15:43:37.611Z,27.28
2023-04-23T15:46:09.405Z,27.46
2023-04-23T15:48:41.148Z,27.58
2023-04-23T15:51:13.679Z,27.76
2023-04-23T15:53:45.435Z,27.89
2023-04-23T15:56:17.377Z,27.79
2023-04-23T15:58:50.205Z,27.92
2023-04-23T16:01:25.499Z,27.69
2023-04-23T16:04:08.610Z,27.86
2023-04-23T16:06:29.378Z,27.94
2023-04-23T16:09:02.309Z,27.70
2023-04-23T16:11:34.955Z,27.86
2023-04-23T16:14:06.884Z,27.97
2023-04-23T16:16:39.529Z,28.38
2023-04-23T16:19:11.997Z,28.25
2023-04-23T16:21:43.733Z,28.53
2023-04-23T16:24:17.498Z,28.49
2023-04-23T16:26:49.195Z,28.60
2023-04-23T16:29:22.819Z,28.46
2023-04-23T16:31:54.000Z,28.56
2023-04-23T16:34:25.780Z,28.69
2023-04-23T16:36:57.670Z,28.42
2023-04-23T16:39:29.450Z,28.17
2023-04-23T16:42:02.052Z,28.42
2023-04-23T16:44:34.561Z,28.44
2023-04-23T16:47:06.790Z,28.46
2023-04-23T16:49:38.908Z,28.64
2023-04-23T16:52:11.167Z,28.88
2023-04-23T16:54:43.759Z,29.07
2023-04-23T16:57:16.355Z,28.92
2023-04-23T16:59:48.053Z,29.45
2023-04-23T17:02:19.813Z,29.33
2023-04-23T17:04:51.827Z,29.53
2023-04-23T17:07:24.181Z,29.71
2023-04-23T17:09:56.219Z,29.79
2023-04-23T17:12:28.125Z,30.42
2023-04-23T17:14:59.675Z,30.80
2023-04-23T17:17:31.540Z,31.17
2023-04-23T17:20:04.047Z,31.24
2023-04-23T17:22:35.959Z,31.46
2023-04-23T17:25:08.324Z,31.53
2023-04-23T17:27:40.213Z,31.46
2023-04-23T17:30:12.414Z,32.94
2023-04-23T17:32:44.426Z,33.32
2023-04-23T17:35:16.282Z,33.68
2023-04-23T17:37:48.236Z,33.38
2023-04-23T17:40:20.390Z,33.19
2023-04-23T17:42:52.593Z,33.17
2023-04-23T17:45:24.187Z,33.49
2023-04-23T17:47:56.485Z,34.49
2023-04-23T17:50:28.817Z,34.02
2023-04-23T17:53:00.437Z,34.11
2023-04-23T17:55:33.172Z,34.17
2023-04-23T17:58:09.313Z,33.80
2023-04-23T18:00:42.395Z,34.24
2023-04-23T18:03:16.073Z,34.44
2023-04-23T18:05:59.265Z,34.28
2023-04-23T18:08:31.388Z,34.59
2023-04-23T18:11:04.627Z,36.83
2023-04-23T18:13:37.421Z,36.08
2023-04-23T18:16:09.088Z,35.75
2023-04-23T18:18:41.647Z,38.00
2023-04-23T18:21:16.909Z,38.43
2023-04-23T18:23:51.335Z,37.66
2023-04-23T18:26:24.045Z,37.80
2023-04-23T18:28:55.739Z,37.97
2023-04-23T18:31:27.375Z,37.39
2023-04-23T18:34:04.940Z,38.15
2023-04-23T18:36:38.524Z,40.78
2023-04-23T18:41:54.868Z,41.28
2023-04-23T18:44:27.568Z,40.65
2023-04-23T18:46:59.602Z,40.24
2023-04-23T18:49:40.674Z,39.49
2023-04-23T18:52:13.191Z,40.99
2023-04-23T18:54:44.851Z,40.88
2023-04-23T18:57:16.911Z,41.42
2023-04-23T18:59:49.591Z,41.56
2023-04-23T19:02:34.388Z,41.47
2023-04-23T19:04:54.921Z,41.64
2023-04-23T19:07:26.845Z,41.31
2023-04-23T19:09:58.878Z,41.37
2023-04-23T19:12:30.688Z,42.17
2023-04-23T19:15:03.285Z,42.09
2023-04-23T19:17:36.601Z,42.12
2023-04-23T19:20:11.336Z,41.65
2023-04-23T19:22:43.349Z,42.07
2023-04-23T19:25:14.945Z,42.36
2023-04-23T19:27:47.352Z,41.72
2023-04-23T19:30:18.949Z,41.67
2023-04-23T19:32:51.294Z,42.32
2023-04-23T19:35:23.460Z,42.21
2023-04-23T19:37:55.965Z,42.92
2023-04-23T19:40:27.523Z,43.00
2023-04-23T19:42:59.372Z,42.59
2023-04-23T19:45:32.411Z,43.05
2023-04-23T19:48:05.001Z,43.36
2023-04-23T19:50:36.704Z,43.28
2023-04-23T19:53:08.466Z,43.43
2023-04-23T19:55:40.751Z,43.89
2023-04-23T19:58:13.240Z,44.18
2023-04-23T20:00:44.915Z,44.20
2023-04-23T20:03:16.651Z,44.04
2023-04-23T20:05:49.877Z,45.09
2023-04-23T20:08:23.209Z,45.27
2023-04-23T20:13:25.751Z,45.89
2023-04-23T20:15:57.560Z,46.95
2023-04-23T20:18:30.932Z,47.68
2023-04-23T20:21:02.752Z,48.25
2023-04-23T20:23:34.868Z,48.34
2023-04-23T20:26:08.557Z,48.51
2023-04-23T20:28:40.271Z,48.74
2023-04-23T20:31:11.981Z,49.16
2023-04-23T20:33:43.568Z,49.61
2023-04-23T20:36:16.127Z,50.29
2023-04-23T20:38:48.047Z,51.03
2023-04-23T20:41:20.527Z,51.93
2023-04-23T20:43:52.652Z,52.96
2023-04-23T20:46:25.206Z,54.34
2023-04-23T20:48:58.352Z,55.48
2023-04-23T20:51:30.429Z,55.99
2023-04-23T20:54:02.337Z,56.16
2023-04-23T20:56:34.092Z,56.60
2023-04-23T20:59:06.377Z,56.86
2023-04-23T21:01:38.694Z,57.25
2023-04-23T21:04:10.378Z,57.39
2023-04-23T21:06:43.262Z,57.58
2023-04-23T21:09:14.965Z,58.29
2023-04-23T21:11:46.882Z,58.89
2023-04-23T21:14:18.509Z,60.88
2023-04-23T21:16:49.981Z,62.79
2023-04-23T21:19:21.627Z,64.63
2023-04-23T21:21:53.333Z,65.74
2023-04-23T21:24:25.049Z,67.40
2023-04-23T21:26:56.946Z,68.77
2023-04-23T21:29:29.512Z,68.99
2023-04-23T21:32:01.042Z,68.52
2023-04-23T21:34:32.855Z,68.88
2023-04-23T21:37:04.487Z,69.58
2023-04-23T21:39:36.220Z,70.22
2023-04-23T21:42:07.752Z,70.12
2023-04-23T21:44:40.715Z,68.89
2023-04-23T21:47:12.455Z,68.47
2023-04-23T21:49:44.590Z,68.40
2023-04-23T21:52:17.542Z,68.33
2023-04-23T21:54:49.189Z,68.02
2023-04-23T21:57:21.287Z,68.18
2023-04-23T21:59:52.858Z,68.56
2023-04-23T22:02:24.636Z,68.81
2023-04-23T22:04:56.253Z,69.44
2023-04-23T22:07:29.608Z,70.40
2023-04-23T22:10:01.700Z,70.70
2023-04-23T22:12:33.814Z,71.37
2023-04-23T22:15:07.933Z,71.82
2023-04-23T22:17:40.832Z,72.28
2023-04-23T22:22:56.219Z,73.01
2023-04-23T22:25:27.994Z,73.38
2023-04-23T22:27:59.835Z,73.88
2023-04-23T22:30:31.679Z,74.40
2023-04-23T22:33:03.469Z,75.31
2023-04-23T22:35:35.118Z,76.07
2023-04-23T22:38:06.785Z,77.21
2023-04-23T22:40:38.559Z,79.84
2023-04-23T22:43:10.226Z,80.37
2023-04-23T22:45:42.087Z,79.82
2023-04-23T22:48:13.676Z,79.68
2023-04-23T22:50:45.598Z,79.72
2023-04-23T22:53:19.768Z,79.69
2023-04-23T22:55:52.790Z,79.59
2023-04-23T22:58:24.462Z,79.38
2023-04-23T23:00:56.276Z,78.74
2023-04-23T23:03:28.004Z,77.34
2023-04-23T23:05:59.946Z,75.91
2023-04-23T23:08:31.633Z,75.25
2023-04-23T23:11:04.211Z,75.22
2023-04-23T23:13:35.887Z,75.32
2023-04-23T23:16:08.091Z,75.18
2023-04-23T23:18:40.773Z,75.09
2023-04-23T23:21:12.287Z,75.17
2023-04-23T23:23:44.088Z,75.17
2023-04-23T23:26:15.847Z,75.54
2023-04-23T23:28:47.473Z,75.62
2023-04-23T23:31:19.836Z,76.02
2023-04-23T23:33:51.522Z,76.80
2023-04-23T23:36:23.146Z,77.93
2023-04-23T23:38:54.786Z,78.71
2023-04-23T23:41:26.976Z,79.22
2023-04-23T23:43:58.564Z,79.87
2023-04-23T23:46:30.428Z,80.41
2023-04-23T23:49:02.138Z,81.06
2023-04-23T23:51:34.816Z,81.59
2023-04-23T23:54:06.356Z,81.01
2023-04-23T23:56:38.182Z,80.28
2023-04-23T23:59:09.728Z,80.18
